createdAt,value
2016-05-15T00:00:56.640Z,8.63
2016-05-15T00:01:56.674Z,8.68
2016-05-15T00:02:56.754Z,8.71
2016-05-15T00:03:57.102Z,8.63
2016-05-15T00:04:56.808Z,8.6
2016-05-15T00:05:56.810Z,8.57
2016-05-15T00:06:56.875Z,8.68
2016-05-15T00:07:56.877Z,8.54
2016-05-15T00:08:56.973Z,8.62
2016-05-15T00:09:56.961Z,8.58
2016-05-15T00:10:56.996Z,8.58
2016-05-15T00:11:57.060Z,8.55
2016-05-15T00:12:57.095Z,8.51
2016-05-15T00:13:57.097Z,8.51
2016-05-15T00:14:57.146Z,8.54
2016-05-15T00:15:57.212Z,8.47
2016-05-15T00:16:57.230Z,8.44
2016-05-15T00:17:57.092Z,8.51
2016-05-15T00:18:57.673Z,8.5
2016-05-15T00:19:57.331Z,8.45
2016-05-15T00:20:57.366Z,8.39
2016-05-15T00:21:57.400Z,8.36
2016-05-15T00:22:57.261Z,8.42
2016-05-15T00:23:57.484Z,8.54
2016-05-15T00:24:57.502Z,8.48
2016-05-15T00:25:57.536Z,8.44
2016-05-15T00:26:57.413Z,8.44
2016-05-15T00:27:57.635Z,8.48
2016-05-15T00:28:57.637Z,8.36
2016-05-15T00:29:57.718Z,8.42
2016-05-15T00:30:57.721Z,8.44
2016-05-15T00:31:57.786Z,8.45
2016-05-15T00:32:57.820Z,8.39
2016-05-15T00:33:58.479Z,8.32
2016-05-15T00:34:57.872Z,8.32
2016-05-15T00:35:57.890Z,8.44
2016-05-15T00:36:57.784Z,8.29
2016-05-15T00:37:57.990Z,8.42
2016-05-15T00:38:58.039Z,8.36
2016-05-15T00:39:57.901Z,8.29
2016-05-15T00:40:58.076Z,8.25
2016-05-15T00:41:58.109Z,8.3
2016-05-15T00:42:58.190Z,8.26
2016-05-15T00:43:58.178Z,8.26
2016-05-15T00:44:58.243Z,8.15
2016-05-15T00:45:58.276Z,8.28
2016-05-15T00:46:58.295Z,8.25
2016-05-15T00:47:58.329Z,8.12
2016-05-15T00:48:58.362Z,8.17
2016-05-15T00:49:58.257Z,8.18
2016-05-15T00:50:58.431Z,8.21
2016-05-15T00:51:58.512Z,8.3
2016-05-15T00:52:58.514Z,8.22
2016-05-15T00:53:58.564Z,8.28
2016-05-15T00:54:58.582Z,8.2
2016-05-15T00:55:58.460Z,8.22
2016-05-15T00:56:58.697Z,8.17
2016-05-15T00:57:58.747Z,8.18
2016-05-15T00:58:58.561Z,8.07
2016-05-15T00:59:58.596Z,8.11
2016-05-15T01:00:58.817Z,8.12
2016-05-15T01:01:58.819Z,8.08
2016-05-15T01:03:59.294Z,8.15
2016-05-15T01:04:58.985Z,8.03
2016-05-15T01:05:58.971Z,8.11
2016-05-15T01:06:59.021Z,8.14
2016-05-15T01:07:59.086Z,8.07
2016-05-15T01:08:59.104Z,7.99
2016-05-15T01:09:59.123Z,8.12
2016-05-15T01:10:59.157Z,7.97
2016-05-15T01:11:59.238Z,8
2016-05-15T01:12:59.240Z,7.9
2016-05-15T01:13:59.259Z,7.99
2016-05-15T01:14:59.292Z,7.96
2016-05-15T01:15:59.342Z,7.93
2016-05-15T01:16:59.376Z,7.96
2016-05-15T01:17:59.409Z,7.94
2016-05-15T01:18:59.318Z,7.93
2016-05-15T01:19:59.509Z,8
2016-05-15T01:20:59.542Z,7.96
2016-05-15T01:21:59.562Z,7.9
2016-05-15T01:22:59.439Z,7.97
2016-05-15T01:23:59.692Z,7.96
2016-05-15T01:24:59.647Z,7.97
2016-05-15T01:25:59.697Z,8.02
2016-05-15T01:26:59.794Z,7.99
2016-05-15T01:27:59.764Z,8.02
2016-05-15T01:28:59.814Z,7.96
2016-05-15T01:29:59.833Z,7.96
2016-05-15T01:30:59.882Z,8.02
2016-05-15T01:31:59.900Z,8.04
2016-05-15T01:32:59.935Z,8.03
2016-05-15T01:34:00.641Z,7.92
2016-05-15T01:35:00.127Z,8.07
2016-05-15T01:35:59.896Z,7.97
2016-05-15T01:37:00.102Z,7.96
2016-05-15T01:38:00.119Z,8.1
2016-05-15T01:39:00.154Z,8.08
2016-05-15T01:40:00.188Z,8.07
2016-05-15T01:41:00.237Z,8.07
2016-05-15T01:42:00.255Z,8.07
2016-05-15T01:43:00.289Z,7.97
2016-05-15T01:44:00.323Z,7.82
2016-05-15T01:45:00.373Z,7.92
2016-05-15T01:46:00.422Z,7.92
2016-05-15T01:47:00.456Z,7.82
2016-05-15T01:48:00.475Z,7.81
2016-05-15T01:49:01.228Z,7.82
2016-05-15T01:50:00.590Z,7.72
2016-05-15T01:51:00.467Z,7.75
2016-05-15T01:52:00.626Z,7.71
2016-05-15T01:53:00.675Z,7.53
2016-05-15T01:54:00.601Z,7.6
2016-05-15T01:55:00.712Z,7.59
2016-05-15T01:56:00.762Z,7.55
2016-05-15T01:57:00.780Z,7.53
2016-05-15T01:58:00.673Z,7.52
2016-05-15T01:59:00.708Z,7.45
2016-05-15T02:00:00.960Z,7.58
2016-05-15T02:01:00.931Z,7.53
2016-05-15T02:02:00.997Z,7.5
2016-05-15T02:03:00.875Z,7.35
2016-05-15T02:04:01.096Z,7.49
2016-05-15T02:05:01.099Z,7.45
2016-05-15T02:06:01.101Z,7.42
2016-05-15T02:07:00.994Z,7.37
2016-05-15T02:08:01.029Z,7.34
2016-05-15T02:09:01.218Z,7.34
2016-05-15T02:10:01.097Z,7.32
2016-05-15T02:11:01.318Z,7.37
2016-05-15T02:12:01.633Z,7.23
2016-05-15T02:13:01.354Z,7.27
2016-05-15T02:14:01.389Z,7.19
2016-05-15T02:15:01.438Z,7.17
2016-05-15T02:16:01.503Z,7.19
2016-05-15T02:17:01.335Z,7.23
2016-05-15T02:18:01.540Z,7.22
2016-05-15T02:19:01.604Z,7.09
2016-05-15T02:20:01.608Z,7.2
2016-05-15T02:21:01.626Z,7.24
2016-05-15T02:22:01.676Z,7.2
2016-05-15T02:23:01.772Z,7.23
2016-05-15T02:24:01.759Z,7.16
2016-05-15T02:25:01.778Z,7.12
2016-05-15T02:26:01.655Z,7.19
2016-05-15T02:27:01.876Z,7.15
2016-05-15T02:28:01.895Z,7.15
2016-05-15T02:29:01.929Z,7.12
2016-05-15T02:30:01.994Z,7.2
2016-05-15T02:31:01.825Z,7.16
2016-05-15T02:32:01.889Z,7.16
2016-05-15T02:33:01.909Z,7.13
2016-05-15T02:34:02.130Z,7.05
2016-05-15T02:35:02.116Z,7.08
2016-05-15T02:36:02.150Z,7.15
2016-05-15T02:37:02.200Z,7.07
2016-05-15T02:38:02.297Z,7.07
2016-05-15T02:39:02.252Z,6.97
2016-05-15T02:40:02.302Z,6.97
2016-05-15T02:41:02.352Z,6.99
2016-05-15T02:42:02.370Z,7.07
2016-05-15T02:43:02.404Z,6.99
2016-05-15T02:44:02.438Z,6.91
2016-05-15T02:45:02.363Z,6.91
2016-05-15T02:46:02.349Z,6.95
2016-05-15T02:47:02.555Z,6.99
2016-05-15T02:48:02.573Z,6.9
2016-05-15T02:49:02.639Z,6.95
2016-05-15T02:50:02.657Z,6.9
2016-05-15T02:51:02.675Z,6.87
2016-05-15T02:52:02.710Z,6.89
2016-05-15T02:53:02.759Z,6.87
2016-05-15T02:54:02.777Z,6.89
2016-05-15T02:55:02.858Z,6.98
2016-05-15T02:56:02.736Z,6.95
2016-05-15T02:57:02.895Z,6.86
2016-05-15T02:58:02.913Z,6.9
2016-05-15T02:59:02.948Z,6.84
2016-05-15T03:00:03.028Z,6.87
2016-05-15T03:01:03.030Z,6.86
2016-05-15T03:02:02.736Z,6.84
2016-05-15T03:03:03.130Z,6.87
2016-05-15T03:04:03.585Z,6.84
2016-05-15T03:05:03.166Z,6.83
2016-05-15T03:06:03.231Z,6.89
2016-05-15T03:07:03.094Z,6.89
2016-05-15T03:08:03.268Z,6.87
2016-05-15T03:09:03.318Z,6.9
2016-05-15T03:10:03.352Z,6.8
2016-05-15T03:11:03.385Z,6.83
2016-05-15T03:12:03.419Z,6.89
2016-05-15T03:13:03.438Z,6.89
2016-05-15T03:14:03.519Z,6.79
2016-05-15T03:15:03.412Z,6.8
2016-05-15T03:16:03.555Z,6.87
2016-05-15T03:17:03.621Z,6.81
2016-05-15T03:18:03.670Z,6.8
2016-05-15T03:19:04.032Z,6.87
2016-05-15T03:20:03.675Z,6.84
2016-05-15T03:21:03.741Z,6.84
2016-05-15T03:22:03.587Z,6.84
2016-05-15T03:23:03.495Z,6.86
2016-05-15T03:24:03.843Z,6.76
2016-05-15T03:25:03.720Z,6.84
2016-05-15T03:26:03.597Z,6.87
2016-05-15T03:27:03.788Z,6.83
2016-05-15T03:28:03.837Z,6.87
2016-05-15T03:29:04.012Z,6.91
2016-05-15T03:30:04.030Z,6.98
2016-05-15T03:31:04.064Z,6.87
2016-05-15T03:32:03.958Z,6.91
2016-05-15T03:33:03.975Z,6.89
2016-05-15T03:34:04.525Z,6.81
2016-05-15T03:35:04.216Z,6.89
2016-05-15T03:36:04.281Z,6.89
2016-05-15T03:37:04.268Z,6.81
2016-05-15T03:38:04.333Z,6.83
2016-05-15T03:39:04.383Z,6.91
2016-05-15T03:40:04.385Z,6.91
2016-05-15T03:41:04.419Z,6.9
2016-05-15T03:42:04.297Z,6.89
2016-05-15T03:43:04.519Z,6.94
2016-05-15T03:44:04.365Z,6.91
2016-05-15T03:45:04.570Z,6.86
2016-05-15T03:46:04.605Z,6.97
2016-05-15T03:47:04.623Z,7.02
2016-05-15T03:48:04.515Z,7.04
2016-05-15T03:49:04.566Z,7.04
2016-05-15T03:50:04.585Z,7.07
2016-05-15T03:51:04.821Z,7.09
2016-05-15T03:52:04.808Z,7.2
2016-05-15T03:53:04.827Z,7.22
2016-05-15T03:54:04.892Z,7.27
2016-05-15T03:55:04.909Z,7.2
2016-05-15T03:56:04.929Z,7.2
2016-05-15T03:57:04.978Z,7.27
2016-05-15T03:58:04.918Z,7.32
2016-05-15T03:59:05.061Z,7.32
2016-05-15T04:00:05.080Z,7.4
2016-05-15T04:01:05.098Z,7.4
2016-05-15T04:02:05.022Z,7.44
2016-05-15T04:03:05.041Z,7.41
2016-05-15T04:04:05.075Z,7.49
2016-05-15T04:05:05.140Z,7.41
2016-05-15T04:06:05.299Z,7.45
2016-05-15T04:07:05.317Z,7.52
2016-05-15T04:08:05.398Z,7.5
2016-05-15T04:09:05.463Z,7.56
2016-05-15T04:10:05.435Z,7.5
2016-05-15T04:11:05.485Z,7.56
2016-05-15T04:12:05.519Z,7.56
2016-05-15T04:13:05.411Z,7.49
2016-05-15T04:14:05.413Z,7.49
2016-05-15T04:15:05.605Z,7.58
2016-05-15T04:16:05.638Z,7.53
2016-05-15T04:17:05.687Z,7.66
2016-05-15T04:18:05.550Z,7.63
2016-05-15T04:19:05.771Z,7.66
2016-05-15T04:20:05.790Z,7.67
2016-05-15T04:21:05.668Z,7.74
2016-05-15T04:22:05.858Z,7.72
2016-05-15T04:23:05.938Z,7.66
2016-05-15T04:24:05.925Z,7.72
2016-05-15T04:25:05.960Z,7.72
2016-05-15T04:26:06.025Z,7.74
2016-05-15T04:27:06.059Z,7.69
2016-05-15T04:28:06.061Z,7.79
2016-05-15T04:29:06.111Z,7.78
2016-05-15T04:30:06.145Z,7.81
2016-05-15T04:31:06.022Z,7.75
2016-05-15T04:32:06.212Z,7.72
2016-05-15T04:33:06.247Z,7.72
2016-05-15T04:34:06.609Z,7.66
2016-05-15T04:35:06.299Z,7.66
2016-05-15T04:36:06.348Z,7.72
2016-05-15T04:37:06.367Z,7.74
2016-05-15T04:38:06.447Z,7.69
2016-05-15T04:39:06.450Z,7.6
2016-05-15T04:40:06.500Z,7.56
2016-05-15T04:41:06.533Z,7.6
2016-05-15T04:42:06.583Z,7.63
2016-05-15T04:43:06.586Z,7.63
2016-05-15T04:44:06.619Z,7.59
2016-05-15T04:45:06.685Z,7.63
2016-05-15T04:46:06.703Z,7.63
2016-05-15T04:47:06.738Z,7.6
2016-05-15T04:48:06.755Z,7.62
2016-05-15T04:49:06.852Z,7.69
2016-05-15T04:50:06.840Z,7.62
2016-05-15T04:51:06.873Z,7.56
2016-05-15T04:52:06.938Z,7.59
2016-05-15T04:53:06.941Z,7.6
2016-05-15T04:54:06.975Z,7.75
2016-05-15T04:55:06.853Z,7.66
2016-05-15T04:56:06.902Z,7.59
2016-05-15T04:57:07.077Z,7.62
2016-05-15T04:58:07.111Z,7.66
2016-05-15T04:59:07.020Z,7.75
2016-05-15T05:00:07.022Z,7.72
2016-05-15T05:01:07.228Z,7.78
2016-05-15T05:02:07.106Z,7.84
2016-05-15T05:03:07.124Z,7.78
2016-05-15T05:04:07.753Z,7.79
2016-05-15T05:05:07.380Z,7.87
2016-05-15T05:06:07.397Z,7.79
2016-05-15T05:07:07.323Z,7.78
2016-05-15T05:08:07.356Z,7.85
2016-05-15T05:09:07.499Z,7.87
2016-05-15T05:10:07.378Z,7.81
2016-05-15T05:11:07.317Z,7.9
2016-05-15T05:12:07.602Z,7.87
2016-05-15T05:13:07.635Z,7.89
2016-05-15T05:14:07.700Z,7.82
2016-05-15T05:15:07.735Z,7.84
2016-05-15T05:16:07.737Z,7.85
2016-05-15T05:17:07.630Z,7.75
2016-05-15T05:18:07.836Z,7.74
2016-05-15T05:19:07.714Z,7.87
2016-05-15T05:20:07.888Z,7.84
2016-05-15T05:21:07.938Z,7.84
2016-05-15T05:22:07.957Z,7.85
2016-05-15T05:23:07.974Z,7.89
2016-05-15T05:24:08.040Z,7.85
2016-05-15T05:25:08.073Z,7.81
2016-05-15T05:26:07.968Z,7.84
2016-05-15T05:27:08.032Z,7.81
2016-05-15T05:28:08.191Z,7.85
2016-05-15T05:29:08.241Z,7.85
2016-05-15T05:30:08.259Z,7.85
2016-05-15T05:31:08.120Z,7.85
2016-05-15T05:32:08.327Z,7.79
2016-05-15T05:33:08.362Z,7.93
2016-05-15T05:34:08.911Z,7.87
2016-05-15T05:35:08.413Z,7.87
2016-05-15T05:36:08.479Z,7.92
2016-05-15T05:37:08.497Z,7.9
2016-05-15T05:38:08.530Z,7.92
2016-05-15T05:39:08.549Z,7.9
2016-05-15T05:40:08.614Z,7.94
2016-05-15T05:41:08.492Z,7.89
2016-05-15T05:42:08.666Z,7.97
2016-05-15T05:43:08.700Z,7.93
2016-05-15T05:44:08.781Z,7.96
2016-05-15T05:45:08.815Z,7.85
2016-05-15T05:46:08.536Z,7.92
2016-05-15T05:47:08.852Z,7.93
2016-05-15T05:48:08.761Z,7.99
2016-05-15T05:49:08.826Z,7.92
2016-05-15T05:50:08.954Z,7.93
2016-05-15T05:51:08.972Z,7.84
2016-05-15T05:52:09.068Z,7.93
2016-05-15T05:53:09.055Z,7.93
2016-05-15T05:54:09.090Z,7.84
2016-05-15T05:55:08.967Z,7.92
2016-05-15T05:56:09.017Z,7.94
2016-05-15T05:57:09.207Z,7.87
2016-05-15T05:58:09.240Z,7.93
2016-05-15T05:59:09.290Z,7.9
2016-05-15T06:00:09.167Z,7.84
2016-05-15T06:01:09.343Z,7.85
2016-05-15T06:02:09.423Z,7.85
2016-05-15T06:03:09.473Z,7.85
2016-05-15T06:04:09.320Z,7.71
2016-05-15T06:05:09.478Z,7.77
2016-05-15T06:06:09.356Z,7.75
2016-05-15T06:07:09.609Z,7.74
2016-05-15T06:08:09.658Z,7.74
2016-05-15T06:09:09.473Z,7.58
2016-05-15T06:10:09.679Z,7.74
2016-05-15T06:11:09.745Z,7.74
2016-05-15T06:12:09.716Z,7.77
2016-05-15T06:13:09.609Z,7.77
2016-05-15T06:14:09.830Z,7.74
2016-05-15T06:15:09.849Z,7.72
2016-05-15T06:16:09.867Z,7.89
2016-05-15T06:17:09.916Z,7.71
2016-05-15T06:18:09.998Z,7.85
2016-05-15T06:19:10.610Z,7.82
2016-05-15T06:20:10.002Z,7.9
2016-05-15T06:21:10.069Z,7.81
2016-05-15T06:22:10.290Z,7.92
2016-05-15T06:23:10.104Z,7.92
2016-05-15T06:24:10.013Z,7.97
2016-05-15T06:25:10.204Z,7.99
2016-05-15T06:26:10.223Z,8.07
2016-05-15T06:27:10.100Z,8.07
2016-05-15T06:28:10.134Z,7.99
2016-05-15T06:29:10.324Z,7.93
2016-05-15T06:30:10.233Z,7.94
2016-05-15T06:31:10.407Z,8.08
2016-05-15T06:32:10.270Z,8.08
2016-05-15T06:33:10.507Z,8.02
2016-05-15T06:34:10.509Z,8.08
2016-05-15T06:35:10.372Z,8.02
2016-05-15T06:36:10.640Z,8.07
2016-05-15T06:37:10.611Z,8.12
2016-05-15T06:38:10.661Z,8.08
2016-05-15T06:39:10.678Z,8.12
2016-05-15T06:40:10.761Z,8.12
2016-05-15T06:41:10.747Z,8.03
2016-05-15T06:42:10.655Z,7.93
2016-05-15T06:43:10.831Z,7.87
2016-05-15T06:44:10.896Z,8.04
2016-05-15T06:45:10.899Z,7.89
2016-05-15T06:46:10.947Z,7.96
2016-05-15T06:47:10.983Z,8
2016-05-15T06:48:11.016Z,8.03
2016-05-15T06:49:11.096Z,8.08
2016-05-15T06:50:11.084Z,7.97
2016-05-15T06:51:10.977Z,8.03
2016-05-15T06:52:11.151Z,7.93
2016-05-15T06:53:11.185Z,8.04
2016-05-15T06:54:10.532Z,7.97
2016-05-15T06:55:11.269Z,7.9
2016-05-15T06:56:11.287Z,7.97
2016-05-15T06:57:11.181Z,7.94
2016-05-15T06:58:11.402Z,7.94
2016-05-15T06:59:11.389Z,8.02
2016-05-15T07:00:11.439Z,8.04
2016-05-15T07:01:11.457Z,8.08
2016-05-15T07:02:11.554Z,8.1
2016-05-15T07:03:11.540Z,8.07
2016-05-15T07:04:11.403Z,8.08
2016-05-15T07:05:11.609Z,8.07
2016-05-15T07:06:11.673Z,7.97
2016-05-15T07:07:11.519Z,8
2016-05-15T07:08:11.711Z,8.04
2016-05-15T07:09:11.759Z,8.08
2016-05-15T07:10:11.778Z,7.97
2016-05-15T07:11:11.827Z,8.15
2016-05-15T07:12:11.862Z,8.02
2016-05-15T07:13:11.614Z,8.04
2016-05-15T07:14:11.929Z,8.11
2016-05-15T07:15:11.964Z,8.08
2016-05-15T07:16:11.997Z,8.07
2016-05-15T07:17:12.031Z,8.04
2016-05-15T07:18:12.066Z,8.02
2016-05-15T07:19:12.630Z,8.04
2016-05-15T07:20:12.149Z,8.04
2016-05-15T07:21:12.213Z,8.07
2016-05-15T07:22:12.216Z,8.02
2016-05-15T07:23:12.235Z,8.11
2016-05-15T07:24:12.332Z,8.1
2016-05-15T07:25:12.302Z,8.12
2016-05-15T07:26:12.352Z,8.2
2016-05-15T07:27:12.418Z,8.3
2016-05-15T07:28:12.107Z,8.37
2016-05-15T07:29:12.454Z,8.29
2016-05-15T07:30:12.488Z,8.28
2016-05-15T07:31:12.538Z,8.5
2016-05-15T07:32:12.571Z,8.37
2016-05-15T07:33:12.606Z,8.4
2016-05-15T07:34:12.656Z,8.44
2016-05-15T07:35:12.689Z,8.48
2016-05-15T07:36:12.691Z,8.54
2016-05-15T07:37:12.742Z,8.57
2016-05-15T07:38:12.791Z,8.63
2016-05-15T07:39:12.829Z,8.63
2016-05-15T07:40:12.906Z,8.58
2016-05-15T07:41:12.985Z,8.6
2016-05-15T07:42:13.077Z,8.65
2016-05-15T07:43:13.169Z,8.68
2016-05-15T07:44:13.250Z,8.71
2016-05-15T07:45:13.112Z,8.75
2016-05-15T07:46:13.381Z,8.69
2016-05-15T07:47:13.383Z,8.75
2016-05-15T07:48:13.433Z,8.72
2016-05-15T07:49:13.900Z,8.71
2016-05-15T07:50:13.580Z,8.63
2016-05-15T07:51:13.572Z,8.66
2016-05-15T07:52:13.596Z,8.66
2016-05-15T07:53:24.011Z,8.62
2016-05-15T07:54:13.564Z,8.62
2016-05-15T07:55:13.599Z,8.72
2016-05-15T07:56:13.760Z,8.69
2016-05-15T07:57:13.671Z,8.62
2016-05-15T07:58:13.832Z,8.58
2016-05-15T07:59:13.883Z,8.63
2016-05-15T08:00:13.949Z,8.54
2016-05-15T08:01:13.968Z,8.72
2016-05-15T08:02:13.815Z,8.58
2016-05-15T08:03:14.022Z,8.72
2016-05-15T08:04:14.556Z,8.55
2016-05-15T08:05:14.090Z,8.68
2016-05-15T08:06:14.124Z,8.58
2016-05-15T08:07:14.191Z,8.66
2016-05-15T08:08:14.272Z,8.66
2016-05-15T08:09:14.227Z,8.6
2016-05-15T08:10:14.278Z,8.6
2016-05-15T08:11:14.343Z,8.63
2016-05-15T08:12:14.376Z,8.63
2016-05-15T08:13:14.394Z,8.66
2016-05-15T08:14:14.429Z,8.66
2016-05-15T08:15:14.463Z,8.73
2016-05-15T08:16:14.481Z,8.73
2016-05-15T08:17:14.546Z,8.63
2016-05-15T08:18:14.643Z,8.62
2016-05-15T08:19:14.457Z,8.68
2016-05-15T08:20:14.632Z,8.71
2016-05-15T08:21:14.666Z,8.65
2016-05-15T08:22:14.779Z,8.68
2016-05-15T08:23:14.593Z,8.78
2016-05-15T08:24:14.799Z,8.66
2016-05-15T08:25:14.802Z,8.63
2016-05-15T08:26:14.867Z,8.72
2016-05-15T08:27:14.870Z,8.69
2016-05-15T08:28:14.934Z,8.62
2016-05-15T08:29:15.032Z,8.65
2016-05-15T08:30:14.878Z,8.58
2016-05-15T08:31:15.036Z,8.55
2016-05-15T08:32:15.055Z,8.58
2016-05-15T08:33:15.136Z,8.65
2016-05-15T08:34:15.530Z,8.58
2016-05-15T08:35:15.016Z,8.58
2016-05-15T08:36:15.223Z,8.71
2016-05-15T08:37:15.288Z,8.63
2016-05-15T08:38:15.290Z,8.72
2016-05-15T08:39:15.153Z,8.73
2016-05-15T08:40:15.358Z,8.72
2016-05-15T08:41:15.423Z,8.75
2016-05-15T08:42:15.441Z,8.86
2016-05-15T08:43:15.475Z,8.94
2016-05-15T08:44:15.510Z,8.99
2016-05-15T08:45:15.574Z,8.86
2016-05-15T08:46:15.577Z,9.01
2016-05-15T08:47:15.611Z,8.91
2016-05-15T08:48:15.692Z,9.05
2016-05-15T08:49:16.491Z,9.05
2016-05-15T08:50:15.713Z,9.2
2016-05-15T08:51:15.779Z,9.2
2016-05-15T08:52:15.796Z,9.27
2016-05-15T08:53:15.831Z,9.31
2016-05-15T08:54:15.879Z,9.32
2016-05-15T08:55:15.929Z,9.32
2016-05-15T08:56:15.948Z,9.34
2016-05-15T08:57:15.998Z,9.39
2016-05-15T08:58:16.015Z,9.38
2016-05-15T08:59:16.065Z,9.34
2016-05-15T09:00:16.084Z,9.42
2016-05-15T09:01:16.117Z,9.48
2016-05-15T09:02:16.167Z,9.53
2016-05-15T09:03:16.217Z,9.58
2016-05-15T09:04:16.750Z,9.52
2016-05-15T09:05:16.160Z,9.56
2016-05-15T09:06:16.350Z,9.64
2016-05-15T09:07:16.399Z,9.71
2016-05-15T09:08:16.386Z,9.71
2016-05-15T09:09:16.435Z,9.7
2016-05-15T09:10:16.469Z,9.83
2016-05-15T09:11:16.505Z,9.88
2016-05-15T09:12:16.553Z,10
2016-05-15T09:13:16.571Z,9.94
2016-05-15T09:14:16.481Z,9.97
2016-05-15T09:15:16.640Z,9.97
2016-05-15T09:16:16.688Z,9.89
2016-05-15T09:17:16.723Z,9.82
2016-05-15T09:18:16.805Z,9.79
2016-05-15T09:19:16.901Z,9.76
2016-05-15T09:20:16.840Z,9.81
2016-05-15T09:21:16.734Z,9.75
2016-05-15T09:22:16.908Z,9.64
2016-05-15T09:23:16.958Z,9.64
2016-05-15T09:24:16.976Z,9.6
2016-05-15T09:25:17.042Z,9.58
2016-05-15T09:26:17.076Z,9.57
2016-05-15T09:27:17.093Z,9.49
2016-05-15T09:28:16.987Z,9.45
2016-05-15T09:29:17.224Z,9.4
2016-05-15T09:30:17.211Z,9.43
2016-05-15T09:31:17.089Z,9.35
2016-05-15T09:32:17.154Z,9.35
2016-05-15T09:33:17.188Z,9.35
2016-05-15T09:34:17.550Z,9.4
2016-05-15T09:35:17.756Z,9.34
2016-05-15T09:36:17.477Z,9.43
2016-05-15T09:37:17.308Z,9.42
2016-05-15T09:38:17.342Z,9.42
2016-05-15T09:39:17.408Z,9.49
2016-05-15T09:40:17.582Z,9.53
2016-05-15T09:41:17.616Z,9.6
2016-05-15T09:42:17.650Z,9.6
2016-05-15T09:43:17.730Z,9.75
2016-05-15T09:44:17.733Z,9.86
2016-05-15T09:45:17.610Z,9.89
2016-05-15T09:46:17.661Z,9.93
2016-05-15T09:47:17.882Z,10.03
2016-05-15T09:48:17.885Z,10.12
2016-05-15T09:49:18.027Z,10.14
2016-05-15T09:50:18.312Z,10.17
2016-05-15T09:51:18.018Z,10.32
2016-05-15T09:52:18.021Z,10.18
2016-05-15T09:53:18.054Z,10.21
2016-05-15T09:54:18.135Z,10.19
2016-05-15T09:55:18.137Z,10.04
2016-05-15T09:56:18.171Z,10.03
2016-05-15T09:57:18.237Z,9.89
2016-05-15T09:58:18.083Z,9.81
2016-05-15T09:59:18.274Z,9.7
2016-05-15T10:00:18.323Z,9.7
2016-05-15T10:01:18.389Z,9.78
2016-05-15T10:02:18.250Z,9.99
2016-05-15T10:03:18.425Z,10.07
2016-05-15T10:04:18.475Z,10.26
2016-05-15T10:05:18.367Z,10.52
2016-05-15T10:06:18.542Z,10.73
2016-05-15T10:07:18.592Z,10.86
2016-05-15T10:08:18.329Z,10.95
2016-05-15T10:09:18.706Z,11.07
2016-05-15T10:10:18.693Z,11.09
2016-05-15T10:11:18.743Z,11.09
2016-05-15T10:12:18.762Z,11.16
2016-05-15T10:13:18.827Z,11.14
2016-05-15T10:14:18.844Z,11.11
2016-05-15T10:15:18.895Z,11.13
2016-05-15T10:16:18.944Z,11.2
2016-05-15T10:17:18.978Z,11.25
2016-05-15T10:18:18.996Z,11.29
2016-05-15T10:19:19.047Z,11.36
2016-05-15T10:20:18.955Z,11.38
2016-05-15T10:21:19.130Z,11.32
2016-05-15T10:22:18.991Z,11.27
2016-05-15T10:23:19.197Z,11.32
2016-05-15T10:24:19.247Z,11.35
2016-05-15T10:25:19.281Z,11.27
2016-05-15T10:26:19.159Z,11.29
2016-05-15T10:27:19.192Z,11.16
2016-05-15T10:28:19.414Z,11.1
2016-05-15T10:29:19.432Z,10.95
2016-05-15T10:30:19.467Z,10.89
2016-05-15T10:31:19.890Z,10.86
2016-05-15T10:32:19.534Z,10.86
2016-05-15T10:33:19.428Z,10.74
2016-05-15T10:34:19.493Z,10.73
2016-05-15T10:35:19.808Z,10.7
2016-05-15T10:36:19.716Z,10.68
2016-05-15T10:37:19.720Z,10.7
2016-05-15T10:38:19.785Z,10.78
2016-05-15T10:39:19.834Z,10.84
2016-05-15T10:40:19.539Z,10.98
2016-05-15T10:41:19.887Z,11.01
2016-05-15T10:42:19.952Z,11.07
2016-05-15T10:43:19.970Z,11.13
2016-05-15T10:44:19.847Z,11.34
2016-05-15T10:45:20.022Z,11.35
2016-05-15T10:46:20.103Z,11.56
2016-05-15T10:47:20.106Z,11.86
2016-05-15T10:48:19.999Z,12.08
2016-05-15T10:49:20.049Z,12.23
2016-05-15T10:50:20.238Z,12.48
2016-05-15T10:51:20.289Z,12.77
2016-05-15T10:52:20.291Z,13.02
2016-05-15T10:53:20.231Z,13.17
2016-05-15T10:54:20.374Z,13.63
2016-05-15T10:55:20.439Z,14.34
2016-05-15T10:56:20.458Z,14.95
2016-05-15T10:57:20.570Z,15.68
2016-05-15T10:58:20.557Z,16.6
2016-05-15T10:59:20.590Z,17.33
2016-05-15T11:00:20.626Z,17.85
2016-05-15T11:01:20.659Z,17.99
2016-05-15T11:02:20.724Z,17.94
2016-05-15T11:03:20.758Z,17.59
2016-05-15T11:04:20.684Z,17.54
2016-05-15T11:05:21.278Z,18.07
2016-05-15T11:06:20.907Z,19.1
2016-05-15T11:07:20.972Z,20.16
2016-05-15T11:08:20.990Z,21.38
2016-05-15T11:09:21.008Z,22.34
2016-05-15T11:10:21.075Z,22.84
2016-05-15T11:11:21.155Z,23.58
2016-05-15T11:12:21.048Z,24.13
2016-05-15T11:13:21.238Z,24.57
2016-05-15T11:14:21.256Z,25
2016-05-15T11:15:21.352Z,25.22
2016-05-15T11:16:21.356Z,24.9
2016-05-15T11:17:21.405Z,23.95
2016-05-15T11:18:21.439Z,23.14
2016-05-15T11:19:21.519Z,22.43
2016-05-15T11:20:21.554Z,21.42
2016-05-15T11:21:21.432Z,20.61
2016-05-15T11:22:21.512Z,19.93
2016-05-15T11:23:21.687Z,19.94
2016-05-15T11:24:21.596Z,20.51
2016-05-15T11:25:21.645Z,21.46
2016-05-15T11:26:21.820Z,22.59
2016-05-15T11:27:31.135Z,23.97
2016-05-15T11:28:21.918Z,24.34
2016-05-15T11:29:21.984Z,24.64
2016-05-15T11:30:22.018Z,24.44
2016-05-15T11:31:22.068Z,24.08
2016-05-15T11:32:22.211Z,23.42
2016-05-15T11:33:22.151Z,22.77
2016-05-15T11:34:22.076Z,22.64
2016-05-15T11:35:23.235Z,22.64
2016-05-15T11:36:22.144Z,22.32
2016-05-15T11:37:22.193Z,22.04
2016-05-15T11:38:22.399Z,21.67
2016-05-15T11:39:22.464Z,21.41
2016-05-15T11:40:22.498Z,20.91
2016-05-15T11:41:22.548Z,20.56
2016-05-15T11:42:22.644Z,20.96
2016-05-15T11:43:22.600Z,21.56
2016-05-15T11:44:22.524Z,22.32
2016-05-15T11:45:22.715Z,22.75
2016-05-15T11:46:22.811Z,22.72
2016-05-15T11:47:22.861Z,22.43
2016-05-15T11:48:22.879Z,21.69
2016-05-15T11:49:22.929Z,21.27
2016-05-15T11:50:23.024Z,21.01
2016-05-15T11:51:23.013Z,20.62
2016-05-15T11:52:23.062Z,20.27
2016-05-15T11:53:23.002Z,19.75
2016-05-15T11:54:23.582Z,19.2
2016-05-15T11:55:23.195Z,18.64
2016-05-15T11:56:23.447Z,18.22
2016-05-15T11:57:23.294Z,17.89
2016-05-15T11:58:23.344Z,17.62
2016-05-15T11:59:23.362Z,17.26
2016-05-15T12:00:23.426Z,16.95
2016-05-15T12:01:23.304Z,16.71
2016-05-15T12:02:23.495Z,16.58
2016-05-15T12:03:23.545Z,17.1
2016-05-15T12:04:23.454Z,17.89
2016-05-15T12:05:23.628Z,19.35
2016-05-15T12:06:23.678Z,20.69
2016-05-15T12:07:23.742Z,21.88
2016-05-15T12:08:23.620Z,23.02
2016-05-15T12:09:23.811Z,24.04
2016-05-15T12:10:23.720Z,24.49
2016-05-15T12:11:23.956Z,24.34
2016-05-15T12:12:23.944Z,24.04
2016-05-15T12:13:24.009Z,23.26
2016-05-15T12:14:24.059Z,22.62
2016-05-15T12:15:24.108Z,21.81
2016-05-15T12:16:24.142Z,21.08
2016-05-15T12:17:24.191Z,20.43
2016-05-15T12:18:24.257Z,19.69
2016-05-15T12:19:24.149Z,19.24
2016-05-15T12:20:24.308Z,18.67
2016-05-15T12:21:24.391Z,18.15
2016-05-15T12:22:24.439Z,17.84
2016-05-15T12:23:24.474Z,17.5
2016-05-15T12:24:24.523Z,17.25
2016-05-15T12:25:24.588Z,16.95
2016-05-15T12:26:24.590Z,16.85
2016-05-15T12:27:24.641Z,16.6
2016-05-15T12:28:24.737Z,16.31
2016-05-15T12:29:24.755Z,16.16
2016-05-15T12:30:24.617Z,16.09
2016-05-15T12:31:24.823Z,15.99
2016-05-15T12:32:24.857Z,15.67
2016-05-15T12:33:24.923Z,15.46
2016-05-15T12:34:25.581Z,15.38
2016-05-15T12:35:25.006Z,15.23
2016-05-15T12:36:25.023Z,15.15
2016-05-15T12:37:25.073Z,15.11
2016-05-15T12:38:25.107Z,14.94
2016-05-15T12:39:25.017Z,14.91
2016-05-15T12:40:25.192Z,14.81
2016-05-15T12:41:25.084Z,14.94
2016-05-15T12:42:25.103Z,15.12
2016-05-15T12:43:25.167Z,15.52
2016-05-15T12:44:25.186Z,16.07
2016-05-15T12:45:25.407Z,16.58
2016-05-15T12:46:25.442Z,16.93
2016-05-15T12:47:25.350Z,17.03
2016-05-15T12:48:25.541Z,16.95
2016-05-15T12:49:26.059Z,16.85
2016-05-15T12:50:25.624Z,16.55
2016-05-15T12:51:25.674Z,16.25
2016-05-15T12:52:25.691Z,15.85
2016-05-15T12:53:25.601Z,15.46
2016-05-15T12:54:25.650Z,15.15
2016-05-15T12:55:25.810Z,14.72
2016-05-15T12:56:25.890Z,14.35
2016-05-15T12:57:25.908Z,14.12
2016-05-15T12:58:25.943Z,13.77
2016-05-15T12:59:25.836Z,13.55
2016-05-15T13:00:26.026Z,13.38
2016-05-15T13:01:26.060Z,13.24
2016-05-15T13:02:25.937Z,13.29
2016-05-15T13:03:26.143Z,13.47
2016-05-15T13:04:26.598Z,13.91
2016-05-15T13:05:26.102Z,14.71
2016-05-15T13:06:26.261Z,15.74
2016-05-15T13:07:26.326Z,16.8
2016-05-15T13:08:26.375Z,17.73
2016-05-15T13:09:26.394Z,18.68
2016-05-15T13:10:26.271Z,19.63
2016-05-15T13:11:26.508Z,20.5
2016-05-15T13:12:26.543Z,21.23
2016-05-15T13:13:26.576Z,21.95
2016-05-15T13:14:26.501Z,22.49
2016-05-15T13:15:26.519Z,22.77
2016-05-15T13:16:26.694Z,23.05